createdAt,value
2023-04-26T00:03:21.603Z,101756.69
2023-04-26T00:06:40.852Z,101741.84
2023-04-26T00:09:44.692Z,101750.53
2023-04-26T00:13:59.681Z,101752.41
2023-04-26T00:16:26.055Z,101741.78
2023-04-26T00:19:02.931Z,101739.75
2023-04-26T00:21:44.862Z,101738.00
2023-04-26T00:29:05.678Z,101723.41
2023-04-26T00:32:13.627Z,101723.88
2023-04-26T00:38:45.257Z,101717.47
2023-04-26T00:41:46.355Z,101723.09
2023-04-26T00:44:17.935Z,101713.78
2023-04-26T00:47:10.752Z,101715.34
2023-04-26T00:52:52.378Z,101724.03
2023-04-26T00:55:29.410Z,101718.19
2023-04-26T00:58:21.459Z,101713.22
2023-04-26T01:01:04.627Z,101723.09
2023-04-26T01:03:37.456Z,101709.97
2023-04-26T01:06:22.342Z,101714.47
2023-04-26T01:09:14.151Z,101714.13
2023-04-26T01:11:45.986Z,101719.97
2023-04-26T01:14:19.346Z,101718.06
2023-04-26T01:17:30.775Z,101722.44
2023-04-26T01:21:03.239Z,101734.28
2023-04-26T01:23:55.669Z,101732.53
2023-04-26T01:29:41.567Z,101722.78
2023-04-26T01:32:19.560Z,101730.28
2023-04-26T01:34:54.450Z,101732.19
2023-04-26T01:38:09.385Z,101734.53
2023-04-26T01:40:47.930Z,101731.78
2023-04-26T01:43:23.020Z,101730.59
2023-04-26T01:46:25.630Z,101737.69
2023-04-26T01:48:58.447Z,101742.84
2023-04-26T01:51:33.296Z,101743.09
2023-04-26T01:54:21.522Z,101751.53
2023-04-26T01:56:54.317Z,101747.94
2023-04-26T01:59:25.142Z,101742.75
2023-04-26T02:02:20.024Z,101744.00
2023-04-26T02:05:04.864Z,101738.31
2023-04-26T02:07:34.912Z,101743.22
2023-04-26T02:10:04.372Z,101740.28
2023-04-26T02:12:33.572Z,101737.50
2023-04-26T02:15:06.234Z,101735.09
2023-04-26T02:17:38.753Z,101745.41
2023-04-26T02:20:11.968Z,101747.84
2023-04-26T02:22:44.174Z,101751.19
2023-04-26T02:25:20.424Z,101750.13
2023-04-26T02:27:49.767Z,101752.66
2023-04-26T02:30:18.794Z,101743.09
2023-04-26T02:32:48.033Z,101750.31
2023-04-26T02:35:20.533Z,101742.22
2023-04-26T02:37:50.623Z,101742.31
2023-04-26T02:40:21.374Z,101745.09
2023-04-26T02:42:51.570Z,101754.28
2023-04-26T02:45:38.209Z,101756.69
2023-04-26T02:49:41.129Z,101747.03
2023-04-26T02:52:31.319Z,101743.41
2023-04-26T02:55:08.834Z,101748.53
2023-04-26T02:57:43.537Z,101742.50
2023-04-26T03:00:38.477Z,101747.66
2023-04-26T03:03:08.971Z,101753.19
2023-04-26T03:17:33.408Z,101740.34
2023-04-26T03:20:20.329Z,101753.41
2023-04-26T03:23:46.028Z,101751.34
2023-04-26T03:26:28.652Z,101753.16
2023-04-26T03:39:07.651Z,101763.75
2023-04-26T03:42:34.224Z,101759.75
2023-04-26T03:46:09.460Z,101762.09
2023-04-26T03:49:02.323Z,101774.25
2023-04-26T04:04:34.062Z,101786.72
2023-04-26T04:07:11.072Z,101781.84
2023-04-26T04:10:14.616Z,101788.53
2023-04-26T04:23:21.440Z,101789.97
2023-04-26T04:31:15.916Z,101803.47
2023-04-26T04:38:34.914Z,101807.91
2023-04-26T05:09:24.000Z,101825.50
2023-04-26T05:12:45.974Z,101828.53
2023-04-26T05:20:33.971Z,101814.97
2023-04-26T05:40:54.720Z,101820.69
2023-04-26T05:44:08.307Z,101825.25
2023-04-26T05:47:24.889Z,101831.81
2023-04-26T05:54:44.110Z,101826.63
2023-04-26T05:57:14.895Z,101825.31
2023-04-26T05:59:50.671Z,101839.88
2023-04-26T06:02:21.156Z,101842.16
2023-04-26T06:05:01.293Z,101834.50
2023-04-26T06:07:36.341Z,101836.00
2023-04-26T06:10:22.084Z,101827.97
2023-04-26T06:13:01.129Z,101820.34
2023-04-26T06:15:44.774Z,101826.16
2023-04-26T06:18:19.381Z,101825.25
2023-04-26T06:20:53.491Z,101816.03
2023-04-26T06:23:27.955Z,101813.19
2023-04-26T06:26:06.919Z,101811.38
2023-04-26T06:28:42.086Z,101796.28
2023-04-26T06:31:17.508Z,101792.50
2023-04-26T06:33:56.242Z,101788.59
2023-04-26T06:36:50.050Z,101779.00
2023-04-26T06:39:30.766Z,101787.34
2023-04-26T06:42:01.592Z,101786.78
2023-04-26T06:44:54.354Z,101797.56
2023-04-26T06:47:33.399Z,101807.69
2023-04-26T06:50:10.077Z,101794.03
2023-04-26T06:52:55.186Z,101799.47
2023-04-26T06:55:48.215Z,101795.44
2023-04-26T06:58:32.574Z,101794.22
2023-04-26T07:01:07.731Z,101798.75
2023-04-26T07:03:47.505Z,101800.56
2023-04-26T07:06:25.424Z,101794.03
2023-04-26T07:09:17.038Z,101795.41
2023-04-26T07:11:53.013Z,101805.16
2023-04-26T07:14:36.441Z,101804.94
2023-04-26T07:17:09.593Z,101795.81
2023-04-26T07:19:44.246Z,101798.03
2023-04-26T07:22:29.094Z,101787.88
2023-04-26T07:25:39.908Z,101792.69
2023-04-26T07:27:54.069Z,101792.97
2023-04-26T07:30:25.452Z,101791.81
2023-04-26T07:33:01.473Z,101793.19
2023-04-26T07:35:37.816Z,101796.63
2023-04-26T07:38:11.145Z,101802.97
2023-04-26T07:40:46.245Z,101808.00
2023-04-26T07:43:18.577Z,101817.66
2023-04-26T07:45:59.240Z,101816.06
2023-04-26T07:48:36.794Z,101810.78
2023-04-26T07:51:23.934Z,101811.03
2023-04-26T07:53:54.469Z,101817.25
2023-04-26T07:56:30.702Z,101809.97
2023-04-26T07:59:00.465Z,101810.19
2023-04-26T08:01:41.738Z,101808.47
2023-04-26T08:04:14.713Z,101806.63
2023-04-26T08:06:47.217Z,101800.34
2023-04-26T08:09:20.068Z,101791.88
2023-04-26T08:12:02.725Z,101784.88
2023-04-26T08:14:36.665Z,101791.66
2023-04-26T08:17:10.568Z,101796.25
2023-04-26T08:19:41.473Z,101794.19
2023-04-26T08:22:14.899Z,101795.91
2023-04-26T08:24:51.935Z,101808.22
2023-04-26T08:27:24.191Z,101809.84
2023-04-26T08:29:54.311Z,101806.44
2023-04-26T08:32:28.930Z,101788.13
2023-04-26T08:35:01.985Z,101776.81
2023-04-26T08:37:37.861Z,101773.69
2023-04-26T08:40:17.153Z,101752.94
2023-04-26T08:42:55.699Z,101750.09
2023-04-26T08:45:27.925Z,101744.31
2023-04-26T08:48:15.614Z,101749.03
2023-04-26T08:50:48.974Z,101735.22
2023-04-26T08:53:21.309Z,101728.06
2023-04-26T08:55:54.034Z,101718.84
2023-04-26T08:58:27.377Z,101718.06
2023-04-26T09:01:05.612Z,101730.81
2023-04-26T09:03:36.921Z,101734.28
2023-04-26T09:06:25.523Z,101730.16
2023-04-26T09:09:11.769Z,101725.31
2023-04-26T09:12:08.452Z,101729.00
2023-04-26T09:14:42.513Z,101713.34
2023-04-26T09:17:45.231Z,101697.78
2023-04-26T09:20:24.552Z,101688.94
2023-04-26T09:23:09.921Z,101691.03
2023-04-26T09:25:54.046Z,101697.22
2023-04-26T09:28:41.687Z,101707.69
2023-04-26T09:35:52.273Z,101708.06
2023-04-26T09:38:12.313Z,101700.47
2023-04-26T09:40:58.557Z,101703.53
2023-04-26T09:43:53.968Z,101690.03
2023-04-26T09:46:41.282Z,101685.31
2023-04-26T09:49:23.329Z,101696.50
2023-04-26T09:52:41.043Z,101689.34
2023-04-26T09:55:55.918Z,101689.66
2023-04-26T09:59:14.410Z,101689.84
2023-04-26T10:01:55.336Z,101673.81
2023-04-26T10:04:55.556Z,101672.91
2023-04-26T10:07:56.684Z,101672.81
2023-04-26T10:10:36.989Z,101677.19
2023-04-26T10:13:07.888Z,101680.19
2023-04-26T10:15:38.304Z,101679.34
2023-04-26T10:18:28.574Z,101675.03
2023-04-26T10:21:35.256Z,101675.22
2023-04-26T10:24:11.104Z,101657.63
2023-04-26T10:26:58.092Z,101647.75
2023-04-26T10:29:59.020Z,101652.69
2023-04-26T10:32:32.941Z,101649.47
2023-04-26T10:35:25.250Z,101647.88
2023-04-26T10:38:04.580Z,101646.63
2023-04-26T10:40:40.746Z,101657.03
2023-04-26T10:43:23.315Z,101656.28
2023-04-26T10:46:44.192Z,101651.72
2023-04-26T10:49:30.587Z,101635.34
2023-04-26T10:52:25.606Z,101637.94
2023-04-26T10:55:05.087Z,101633.09
2023-04-26T10:58:06.137Z,101636.47
2023-04-26T11:00:39.558Z,101642.00
2023-04-26T11:03:19.942Z,101634.22
2023-04-26T11:06:00.391Z,101633.59
2023-04-26T11:08:40.749Z,101643.22
2023-04-26T11:11:24.821Z,101646.41
2023-04-26T11:13:54.507Z,101645.78
2023-04-26T11:16:32.601Z,101643.63
2023-04-26T11:19:05.989Z,101637.22
2023-04-26T11:21:42.162Z,101634.69
2023-04-26T11:24:28.545Z,101636.06
2023-04-26T11:27:14.079Z,101633.78
2023-04-26T11:29:47.181Z,101650.69
2023-04-26T11:32:18.477Z,101659.66
2023-04-26T11:34:54.350Z,101647.09
2023-04-26T11:37:28.665Z,101648.16
2023-04-26T11:40:04.022Z,101645.63
2023-04-26T11:42:36.361Z,101648.53
2023-04-26T11:45:11.578Z,101649.34
2023-04-26T11:47:51.861Z,101651.00
2023-04-26T11:50:26.412Z,101647.69
2023-04-26T11:53:01.455Z,101644.72
2023-04-26T11:55:35.792Z,101630.03
2023-04-26T11:58:17.952Z,101626.22
2023-04-26T12:01:02.021Z,101620.47
2023-04-26T12:03:48.876Z,101615.19
2023-04-26T12:06:32.620Z,101613.75
2023-04-26T12:09:12.963Z,101619.31
2023-04-26T12:11:44.355Z,101627.91
2023-04-26T12:14:25.982Z,101627.78
2023-04-26T12:17:05.050Z,101627.50
2023-04-26T12:19:36.547Z,101639.03
2023-04-26T12:22:07.835Z,101638.13
2023-04-26T12:24:38.943Z,101642.91
2023-04-26T12:27:09.704Z,101642.16
2023-04-26T12:29:42.195Z,101636.13
2023-04-26T12:32:11.982Z,101647.16
2023-04-26T12:34:44.134Z,101640.56
2023-04-26T12:37:22.757Z,101637.50
2023-04-26T12:39:52.468Z,101629.28
2023-04-26T12:42:29.901Z,101625.78
2023-04-26T12:44:59.506Z,101637.00
2023-04-26T12:47:36.063Z,101619.41
2023-04-26T12:50:09.119Z,101612.19
2023-04-26T12:52:53.132Z,101609.50
2023-04-26T12:55:23.578Z,101620.38
2023-04-26T12:57:55.895Z,101615.69
2023-04-26T13:00:29.456Z,101626.59
2023-04-26T13:03:03.456Z,101617.91
2023-04-26T13:05:37.804Z,101612.72
2023-04-26T13:08:08.194Z,101612.00
2023-04-26T13:10:40.636Z,101611.38
2023-04-26T13:13:11.861Z,101600.91
2023-04-26T13:15:50.923Z,101595.66
2023-04-26T13:18:22.758Z,101598.50
2023-04-26T13:20:52.698Z,101601.13
2023-04-26T13:23:22.996Z,101596.84
2023-04-26T13:25:55.582Z,101600.34
2023-04-26T13:28:28.461Z,101597.44
2023-04-26T13:30:58.593Z,101611.72
2023-04-26T13:33:44.565Z,101621.69
2023-04-26T13:36:35.593Z,101628.59
2023-04-26T13:39:10.865Z,101643.94
2023-04-26T13:41:40.285Z,101646.34
2023-04-26T13:44:09.729Z,101639.09
2023-04-26T13:46:42.024Z,101634.09
2023-04-26T13:49:21.640Z,101636.78
2023-04-26T13:52:18.056Z,101630.41
2023-04-26T13:54:57.505Z,101640.53
2023-04-26T13:57:47.716Z,101645.28
2023-04-26T14:00:51.151Z,101661.78
2023-04-26T14:03:22.081Z,101658.13
2023-04-26T14:06:16.582Z,101665.53
2023-04-26T14:15:51.231Z,101650.47
2023-04-26T14:18:58.668Z,101656.19
2023-04-26T14:21:54.336Z,101661.50
2023-04-26T14:24:23.817Z,101664.97
2023-04-26T14:27:10.519Z,101665.19
2023-04-26T14:29:43.416Z,101663.47
2023-04-26T14:32:18.708Z,101667.25
2023-04-26T14:34:57.494Z,101659.22
2023-04-26T14:37:30.240Z,101658.03
2023-04-26T14:40:04.473Z,101654.41
2023-04-26T14:42:48.365Z,101646.66
2023-04-26T14:45:43.919Z,101647.75
2023-04-26T14:48:21.615Z,101671.75
2023-04-26T14:51:09.675Z,101675.13
2023-04-26T14:53:41.249Z,101687.56
2023-04-26T14:56:11.211Z,101685.47
2023-04-26T14:58:50.577Z,101686.63
2023-04-26T15:01:22.655Z,101688.81
2023-04-26T15:03:54.426Z,101695.09
2023-04-26T15:06:29.489Z,101691.88
2023-04-26T15:09:12.615Z,101685.91
2023-04-26T15:11:49.048Z,101694.75
2023-04-26T15:14:24.329Z,101683.75
2023-04-26T15:17:06.686Z,101688.25
2023-04-26T15:19:47.104Z,101692.81
2023-04-26T15:22:28.438Z,101688.31
2023-04-26T15:25:24.574Z,101689.56
2023-04-26T15:28:03.374Z,101687.28
2023-04-26T15:31:03.972Z,101700.63
2023-04-26T15:33:40.607Z,101699.03
2023-04-26T15:36:24.760Z,101684.03
2023-04-26T15:39:20.352Z,101688.28
2023-04-26T15:42:23.609Z,101721.63
2023-04-26T15:45:14.958Z,101746.94
2023-04-26T15:47:50.046Z,101730.47
2023-04-26T15:50:35.020Z,101717.94
2023-04-26T15:53:30.702Z,101701.47
2023-04-26T15:56:25.827Z,101682.78
2023-04-26T16:02:24.032Z,101677.94
2023-04-26T16:04:53.891Z,101718.97
2023-04-26T16:07:26.845Z,101731.13
2023-04-26T16:10:11.900Z,101730.63
2023-04-26T16:12:44.566Z,101726.09
2023-04-26T16:16:14.869Z,101712.34
2023-04-26T16:19:08.445Z,101709.69
2023-04-26T16:21:42.429Z,101714.16
2023-04-26T16:24:18.761Z,101729.69
2023-04-26T16:27:04.125Z,101716.69
2023-04-26T16:29:42.567Z,101711.84
2023-04-26T16:32:12.312Z,101711.31
2023-04-26T16:35:05.444Z,101691.84
2023-04-26T16:37:40.931Z,101694.41
2023-04-26T16:40:17.003Z,101692.38
2023-04-26T16:42:51.678Z,101683.59
2023-04-26T16:48:33.524Z,101678.44
2023-04-26T16:51:12.511Z,101685.25
2023-04-26T16:53:42.049Z,101682.44
2023-04-26T16:56:13.504Z,101673.41
2023-04-26T16:58:43.016Z,101679.38
2023-04-26T17:01:12.197Z,101693.06
2023-04-26T17:03:45.484Z,101701.34
2023-04-26T17:06:15.172Z,101703.28
2023-04-26T17:08:44.446Z,101702.31
2023-04-26T17:11:18.926Z,101709.00
2023-04-26T17:13:51.428Z,101722.06
2023-04-26T17:16:21.935Z,101736.00
2023-04-26T17:18:50.978Z,101741.69
2023-04-26T17:21:20.453Z,101731.88
2023-04-26T17:23:51.194Z,101735.25
2023-04-26T17:26:29.289Z,101748.84
2023-04-26T17:29:10.149Z,101734.03
2023-04-26T17:31:39.802Z,101725.09
2023-04-26T17:34:08.979Z,101720.22
2023-04-26T17:36:41.368Z,101719.66
2023-04-26T17:39:16.356Z,101728.50
2023-04-26T17:41:51.825Z,101725.56
2023-04-26T17:44:22.396Z,101717.38
2023-04-26T17:47:02.677Z,101709.63
2023-04-26T17:49:33.640Z,101707.41
2023-04-26T17:52:05.026Z,101703.22
2023-04-26T17:54:38.483Z,101684.13
2023-04-26T17:57:10.912Z,101692.09
2023-04-26T17:59:44.088Z,101673.69
2023-04-26T18:02:13.811Z,101687.88
2023-04-26T18:04:43.614Z,101687.88
2023-04-26T18:07:16.599Z,101685.66
2023-04-26T18:09:46.008Z,101684.06
2023-04-26T18:12:18.586Z,101684.06
2023-04-26T18:14:53.786Z,101690.84
2023-04-26T18:17:28.199Z,101693.88
2023-04-26T18:20:04.374Z,101687.88
2023-04-26T18:22:36.904Z,101701.63
2023-04-26T18:25:12.367Z,101689.78
2023-04-26T18:28:04.754Z,101693.78
2023-04-26T18:31:13.295Z,101694.09
2023-04-26T18:34:05.883Z,101694.47
2023-04-26T18:36:42.746Z,101683.94
2023-04-26T18:39:32.490Z,101695.84
2023-04-26T18:42:35.748Z,101700.06
2023-04-26T18:45:26.036Z,101696.53
2023-04-26T18:48:04.752Z,101684.75
2023-04-26T18:54:37.316Z,101671.47
2023-04-26T18:57:25.274Z,101683.16
2023-04-26T19:00:10.230Z,101692.56
2023-04-26T19:03:18.056Z,101696.25
2023-04-26T19:05:53.674Z,101693.44
2023-04-26T19:08:35.489Z,101690.34
2023-04-26T19:14:37.096Z,101682.44
2023-04-26T19:17:51.033Z,101672.03
2023-04-26T19:21:44.531Z,101669.63
2023-04-26T19:24:48.389Z,101665.50
2023-04-26T19:33:30.586Z,101664.66
2023-04-26T19:52:42.982Z,101618.53
2023-04-26T19:55:41.297Z,101623.91
2023-04-26T20:00:15.410Z,101618.53
2023-04-26T20:06:27.277Z,101600.50
2023-04-26T20:09:40.061Z,101594.06
2023-04-26T20:12:57.596Z,101583.88
2023-04-26T20:16:41.753Z,101605.81
2023-04-26T20:32:42.456Z,101596.63
2023-04-26T20:40:10.520Z,101595.06
2023-04-26T20:46:38.999Z,101591.78
2023-04-26T20:57:31.072Z,101573.59
2023-04-26T21:05:37.871Z,101573.91
2023-04-26T21:08:58.925Z,101564.72
2023-04-26T21:43:03.513Z,101545.94
2023-04-26T21:46:26.016Z,101548.28
2023-04-26T21:49:29.914Z,101537.13
2023-04-26T21:55:24.261Z,101526.69
2023-04-26T21:58:06.890Z,101524.00
2023-04-26T22:00:43.473Z,101516.63
2023-04-26T22:03:17.215Z,101519.75
2023-04-26T22:09:41.668Z,101518.75
2023-04-26T22:13:12.372Z,101515.47
2023-04-26T22:15:47.699Z,101500.75
2023-04-26T22:18:27.401Z,101513.00
2023-04-26T22:25:24.175Z,101497.19
2023-04-26T22:28:33.205Z,101516.69
2023-04-26T22:31:15.287Z,101498.19
2023-04-26T22:33:50.700Z,101499.50
2023-04-26T22:36:33.002Z,101488.88
2023-04-26T22:39:57.127Z,101493.31
2023-04-26T22:42:46.993Z,101496.16
2023-04-26T22:45:59.391Z,101488.63
2023-04-26T22:48:22.139Z,101489.63
2023-04-26T22:50:54.660Z,101487.34
2023-04-26T22:53:23.861Z,101485.84
2023-04-26T22:55:52.974Z,101482.13
2023-04-26T22:58:22.593Z,101475.75
2023-04-26T23:00:52.104Z,101472.78
2023-04-26T23:03:31.459Z,101474.25
2023-04-26T23:06:23.618Z,101469.59
2023-04-26T23:09:03.041Z,101466.53
2023-04-26T23:11:32.777Z,101471.34
2023-04-26T23:14:04.058Z,101461.03
2023-04-26T23:16:34.106Z,101465.16
2023-04-26T23:19:04.295Z,101465.78
2023-04-26T23:21:36.801Z,101470.47
2023-04-26T23:24:21.151Z,101473.22
2023-04-26T23:26:56.432Z,101462.63
2023-04-26T23:29:31.561Z,101458.25
2023-04-26T23:32:32.147Z,101454.53
2023-04-26T23:41:44.679Z,101457.56
2023-04-26T23:44:31.130Z,101459.59
2023-04-26T23:47:17.056Z,101449.09
2023-04-26T23:49:58.327Z,101452.78
